Time;durP1;ratioP1;P1;durP2;ratioP2;P2;SDS_P1;SDS_P2;PMS_P1;PMS_P2;Temp;Humidity;BMP_temperature;BMP_pressure;BME280_temperature;BME280_humidity;BME280_pressure;Samples;Min_cycle;Max_cycle;Signal;HPM_P1;HPM_P2
2021/11/29 00:04:45;;;;;;;57.90;29.20;;;;;;;3.68;71.10;96773.60;212865;1322;139991;-63
2021/11/29 00:09:48;;;;;;;52.30;26.80;;;;;;;3.64;71.45;96786.36;211977;1325;139855;-65
2021/11/29 00:14:51;;;;;;;50.30;26.60;;;;;;;3.65;71.23;96783.26;212465;1325;140962;-58
2021/11/29 00:19:54;;;;;;;51.40;27.90;;;;;;;3.63;71.49;96777.34;211983;1326;139027;-56
2021/11/29 00:24:57;;;;;;;50.70;27.20;;;;;;;3.61;71.50;96786.17;212552;1322;139408;-55
2021/11/29 00:30:01;;;;;;;52.80;27.40;;;;;;;3.60;71.40;96796.12;212695;1322;139349;-59
2021/11/29 00:35:04;;;;;;;48.80;25.30;;;;;;;3.56;71.71;96808.60;212626;1323;141465;-59
2021/11/29 00:40:09;;;;;;;51.30;25.50;;;;;;;3.54;71.50;96810.15;212947;1324;140544;-57
2021/11/29 00:45:12;;;;;;;46.30;24.10;;;;;;;3.55;71.57;96792.23;212519;1326;139856;-56
2021/11/29 00:50:17;;;;;;;48.00;24.20;;;;;;;3.59;71.47;96791.42;212196;1323;140565;-60
2021/11/29 00:55:22;;;;;;;44.40;22.30;;;;;;;3.55;71.44;96796.41;212442;1325;139126;-58
2021/11/29 01:00:27;;;;;;;44.90;24.00;;;;;;;3.54;71.49;96814.16;213177;1325;139273;-57
2021/11/29 01:05:30;;;;;;;;;;;;;;;3.53;71.64;96826.17;212207;1328;140265;-55
2021/11/29 01:10:34;;;;;;;39.70;21.20;;;;;;;3.49;71.52;96831.04;212479;1325;125617;-57
2021/11/29 01:15:38;;;;;;;42.90;22.60;;;;;;;3.44;71.58;96829.45;212053;1322;141103;-57
2021/11/29 01:20:44;;;;;;;39.00;20.40;;;;;;;3.46;71.52;96816.88;212421;1322;140391;-60
2021/11/29 01:25:48;;;;;;;42.30;20.60;;;;;;;3.52;71.49;96816.25;212352;1326;140528;-60
2021/11/29 01:30:53;;;;;;;43.70;21.20;;;;;;;3.48;71.34;96803.35;212074;1331;139505;-57
2021/11/29 01:35:56;;;;;;;39.80;21.10;;;;;;;3.45;71.61;96811.52;212719;1322;138956;-58
2021/11/29 01:40:59;;;;;;;42.10;21.10;;;;;;;3.40;71.54;96814.33;212779;1322;139202;-59
2021/11/29 01:46:02;;;;;;;37.90;18.90;;;;;;;3.42;71.54;96820.33;212824;1322;140729;-60
2021/11/29 01:51:06;;;;;;;38.00;20.30;;;;;;;3.43;71.57;96823.73;212268;1325;139590;-57
2021/11/29 01:56:10;;;;;;;40.90;21.60;;;;;;;3.43;71.77;96827.59;212553;1325;139700;-57
2021/11/29 02:01:19;;;;;;;35.70;19.80;;;;;;;3.43;71.68;96832.86;212386;1328;139833;-58
2021/11/29 02:06:29;;;;;;;37.90;20.30;;;;;;;3.41;71.68;96844.88;212862;1322;142345;-59
2021/11/29 02:11:32;;;;;;;42.60;21.70;;;;;;;3.34;71.49;96837.35;212293;1323;140654;-59
2021/11/29 02:16:35;;;;;;;36.80;20.30;;;;;;;3.33;71.73;96843.35;212422;1322;139890;-58
2021/11/29 02:21:38;;;;;;;37.30;19.10;;;;;;;3.39;71.60;96846.45;213043;1322;139637;-59
2021/11/29 02:26:42;;;;;;;36.20;19.30;;;;;;;3.40;71.81;96840.41;212237;1328;139677;-59
2021/11/29 02:31:47;;;;;;;34.60;18.60;;;;;;;3.44;71.74;96840.83;212539;1325;139613;-56
2021/11/29 02:36:53;;;;;;;32.30;17.50;;;;;;;3.45;71.70;96834.83;212136;1332;139774;-60
2021/11/29 02:41:58;;;;;;;33.20;17.60;;;;;;;3.45;71.59;96838.15;212429;1322;139237;-59
2021/11/29 02:47:02;;;;;;;;;;;;;;;3.44;71.72;96838.42;212518;1327;140698;-57
2021/11/29 02:52:10;;;;;;;26.40;15.10;;;;;;;3.42;71.66;96848.52;212463;1322;126568;-57
2021/11/29 02:57:19;;;;;;;29.70;15.50;;;;;;;3.47;71.62;96850.98;212861;1323;139950;-57
2021/11/29 03:02:22;;;;;;;25.20;14.80;;;;;;;3.51;71.78;96846.65;212388;1330;140953;-60
2021/11/29 03:07:25;;;;;;;26.70;14.50;;;;;;;3.48;71.52;96847.05;212334;1321;139336;-61
2021/11/29 03:12:28;;;;;;;26.90;14.60;;;;;;;3.43;71.39;96841.23;212759;1322;203640;-57
2021/11/29 03:17:31;;;;;;;26.20;15.40;;;;;;;3.37;71.56;96843.79;212467;1329;139195;-62
2021/11/29 03:22:35;;;;;;;25.70;14.30;;;;;;;3.36;71.65;96858.02;212170;1325;139728;-60
2021/11/29 03:27:41;;;;;;;29.20;16.40;;;;;;;3.38;71.59;96857.73;212317;1324;139841;-59
2021/11/29 03:32:44;;;;;;;29.80;15.30;;;;;;;3.39;71.60;96860.51;212627;1326;139623;-59
2021/11/29 03:37:47;;;;;;;27.20;14.90;;;;;;;3.35;71.72;96863.05;212793;1321;139861;-61
2021/11/29 03:42:50;;;;;;;33.20;16.80;;;;;;;3.31;71.53;96856.83;212132;1325;140090;-58
2021/11/29 03:47:53;;;;;;;32.40;16.30;;;;;;;3.29;71.54;96849.91;212373;1326;140488;-58
2021/11/29 03:52:57;;;;;;;29.40;16.70;;;;;;;3.27;71.52;96846.52;211785;1330;139921;-58
2021/11/29 03:58:00;;;;;;;27.60;15.50;;;;;;;3.29;71.78;96844.83;212451;1325;140338;-58
2021/11/29 04:03:03;;;;;;;31.40;17.20;;;;;;;3.35;71.56;96837.95;212628;1325;140118;-59
2021/11/29 04:08:06;;;;;;;28.50;16.10;;;;;;;3.41;71.70;96840.88;212543;1324;139844;-58
2021/11/29 04:13:14;;;;;;;28.90;16.20;;;;;;;3.45;71.66;96838.34;212723;1325;139149;-58
2021/11/29 04:18:18;;;;;;;27.00;16.20;;;;;;;3.42;71.44;96842.05;212630;1326;139080;-56
2021/11/29 04:23:21;;;;;;;26.30;15.50;;;;;;;3.40;71.50;96842.70;212002;1331;138991;-56
2021/11/29 04:28:24;;;;;;;23.50;13.90;;;;;;;3.38;71.44;96848.77;212382;1323;139955;-57
2021/11/29 04:33:27;;;;;;;25.40;14.00;;;;;;;3.41;71.33;96847.03;212687;1322;140541;-58
2021/11/29 04:38:30;;;;;;;22.10;12.90;;;;;;;3.45;71.48;96843.23;212262;1323;140828;-59
2021/11/29 04:43:34;;;;;;;85.70;52.50;;;;;;;3.48;71.61;96862.51;212043;1330;139441;-59
2021/11/29 04:48:37;;;;;;;27.50;15.40;;;;;;;3.61;72.02;96871.06;211973;1331;139151;-61
2021/11/29 04:53:41;;;;;;;28.40;15.50;;;;;;;3.64;71.51;96871.02;212923;1322;139222;-58
2021/11/29 04:58:44;;;;;;;29.70;15.60;;;;;;;3.58;71.43;96863.73;212116;1329;140646;-62
2021/11/29 05:03:47;;;;;;;28.80;15.80;;;;;;;3.53;71.24;96859.46;212324;1325;141066;-59
2021/11/29 05:08:51;;;;;;;25.10;15.00;;;;;;;3.51;71.41;96859.96;212920;1325;139692;-61
2021/11/29 05:13:54;;;;;;;28.30;15.70;;;;;;;3.54;71.43;96877.31;212321;1323;140587;-59
2021/11/29 05:18:58;;;;;;;26.90;16.10;;;;;;;3.58;71.76;96876.50;212593;1324;139494;-59
2021/11/29 05:24:01;;;;;;;27.80;16.60;;;;;;;3.62;71.48;96869.77;212723;1321;139797;-59
2021/11/29 05:29:04;;;;;;;24.60;15.20;;;;;;;3.56;71.28;96876.27;212746;1324;140980;-57
2021/11/29 05:34:07;;;;;;;22.20;14.30;;;;;;;3.50;71.14;96887.25;212383;1325;141072;-60
2021/11/29 05:39:13;;;;;;;23.40;14.00;;;;;;;3.46;71.06;96895.39;213181;1325;141643;-57
2021/11/29 05:44:17;;;;;;;23.70;15.70;;;;;;;3.46;71.33;96887.30;212355;1325;140128;-57
2021/11/29 05:49:20;;;;;;;19.70;13.00;;;;;;;3.51;71.29;96880.52;211835;1328;139398;-60
2021/11/29 05:54:23;;;;;;;23.40;13.70;;;;;;;3.46;71.25;96899.07;212679;1325;139472;-58
2021/11/29 05:59:26;;;;;;;21.10;13.70;;;;;;;3.43;71.03;96911.92;212244;1323;139074;-57
2021/11/29 06:04:29;;;;;;;21.30;14.50;;;;;;;3.43;71.21;96912.08;212801;1323;139708;-60
2021/11/29 06:09:32;;;;;;;20.80;12.90;;;;;;;3.43;71.18;96924.01;212356;1327;139375;-62
2021/11/29 06:14:35;;;;;;;24.30;13.50;;;;;;;3.37;70.98;96938.92;212502;1326;139672;-62
2021/11/29 06:19:38;;;;;;;23.00;15.40;;;;;;;3.39;71.28;96947.77;212532;1321;140216;-59
2021/11/29 06:24:41;;;;;;;19.00;12.70;;;;;;;3.43;71.30;96947.67;212503;1322;139625;-62
2021/11/29 06:29:48;;;;;;;21.80;13.50;;;;;;;3.40;71.12;96949.94;211951;1326;140377;-62
2021/11/29 06:34:51;;;;;;;21.70;14.00;;;;;;;3.33;71.23;96956.35;211802;1331;140444;-58
2021/11/29 06:39:57;;;;;;;99.10;59.60;;;;;;;3.28;71.30;96951.61;212071;1330;139457;-58
2021/11/29 06:45:00;;;;;;;;;;;;;;;3.36;71.62;96949.02;211780;1335;140239;-57
2021/11/29 06:50:03;;;;;;;22.30;12.80;;;;;;;3.31;71.34;96957.91;212911;1322;126309;-58
2021/11/29 06:55:11;;;;;;;19.30;12.60;;;;;;;3.19;71.17;96972.18;212893;1322;139644;-57
2021/11/29 07:00:20;;;;;;;27.70;16.10;;;;;;;3.17;71.71;96985.97;212517;1326;139687;-64
2021/11/29 07:05:26;;;;;;;24.60;15.70;;;;;;;3.22;71.54;96991.80;212518;1328;139393;-57
2021/11/29 07:10:29;;;;;;;26.60;14.70;;;;;;;3.22;71.65;96992.19;212289;1322;139556;-60
2021/11/29 07:15:33;;;;;;;27.00;14.60;;;;;;;3.22;71.63;96993.19;212390;1327;140558;-60
2021/11/29 07:20:36;;;;;;;28.00;14.50;;;;;;;3.23;71.66;96994.89;212870;1326;144591;-58
2021/11/29 07:25:39;;;;;;;24.80;13.90;;;;;;;3.27;71.62;96991.98;211920;1330;141268;-61
2021/11/29 07:30:42;;;;;;;26.30;15.00;;;;;;;3.33;71.75;96990.23;212450;1328;139773;-61
2021/11/29 07:35:46;;;;;;;25.60;14.60;;;;;;;3.33;71.54;96987.42;212046;1331;139745;-59
2021/11/29 07:40:50;;;;;;;23.30;14.50;;;;;;;3.27;71.31;96991.45;212059;1329;140518;-57
2021/11/29 07:45:53;;;;;;;22.50;13.60;;;;;;;3.21;71.40;97000.98;212245;1322;139592;-56
2021/11/29 07:50:56;;;;;;;29.80;15.10;;;;;;;3.18;71.50;97015.89;212123;1329;141953;-58
2021/11/29 07:56:00;;;;;;;25.80;14.70;;;;;;;3.21;71.46;97018.70;211995;1329;139055;-59
2021/11/29 08:01:03;;;;;;;27.40;16.50;;;;;;;3.22;71.64;97017.05;212297;1329;139425;-59
2021/11/29 08:06:06;;;;;;;28.80;16.00;;;;;;;3.20;71.68;97026.65;212004;1324;139481;-59
2021/11/29 08:11:11;;;;;;;26.60;14.50;;;;;;;3.23;71.72;97032.77;212210;1328;139310;-59
2021/11/29 08:16:16;;;;;;;28.20;15.10;;;;;;;3.20;71.53;97027.17;212569;1326;139698;-62
2021/11/29 08:21:19;;;;;;;27.20;14.80;;;;;;;3.22;71.73;97028.81;212209;1326;140376;-61
2021/11/29 08:26:22;;;;;;;24.80;15.80;;;;;;;3.24;71.84;97034.98;212084;1328;140123;-57
2021/11/29 08:31:25;;;;;;;25.90;15.60;;;;;;;3.29;71.59;97039.02;212569;1325;139556;-62
2021/11/29 08:36:29;;;;;;;26.40;14.80;;;;;;;3.31;71.63;97043.26;212457;1321;139048;-58
2021/11/29 08:41:33;;;;;;;27.60;16.60;;;;;;;3.34;71.70;97049.56;212108;1328;139846;-54
2021/11/29 08:46:36;;;;;;;25.80;15.30;;;;;;;3.35;71.48;97049.49;212376;1328;140404;-59
2021/11/29 08:51:39;;;;;;;27.40;15.40;;;;;;;3.36;71.42;97054.17;211968;1329;139292;-58
2021/11/29 08:56:43;;;;;;;20.60;12.00;;;;;;;3.41;71.57;97059.62;212476;1323;139777;-61
2021/11/29 09:01:47;;;;;;;23.70;14.80;;;;;;;3.46;71.35;97058.59;211950;1329;140648;-62
2021/11/29 09:06:51;;;;;;;21.40;13.80;;;;;;;3.53;71.46;97060.73;212678;1329;138949;-60
2021/11/29 09:11:54;;;;;;;22.30;13.80;;;;;;;3.59;71.27;97059.48;212347;1329;139119;-57
2021/11/29 09:16:57;;;;;;;20.10;12.40;;;;;;;3.54;70.96;97062.59;212424;1329;139763;-57
2021/11/29 09:22:00;;;;;;;24.30;14.90;;;;;;;3.50;71.04;97063.77;212956;1329;139253;-57
2021/11/29 09:27:03;;;;;;;26.10;13.90;;;;;;;3.47;71.14;97066.02;212176;1329;140142;-60
2021/11/29 09:32:07;;;;;;;24.60;13.60;;;;;;;3.51;71.09;97073.12;212353;1323;139376;-58
2021/11/29 09:37:13;;;;;;;22.30;13.80;;;;;;;3.50;70.86;97070.23;212825;1328;139287;-61
2021/11/29 09:42:17;;;;;;;20.30;13.20;;;;;;;3.48;70.90;97070.04;212156;1326;139565;-60
2021/11/29 09:47:21;;;;;;;22.20;12.10;;;;;;;3.39;70.71;97069.92;212339;1329;139797;-59
2021/11/29 09:52:25;;;;;;;17.10;10.50;;;;;;;3.29;70.81;97068.62;212249;1323;139755;-59
2021/11/29 09:57:28;;;;;;;16.70;9.90;;;;;;;3.24;70.73;97065.98;212070;1327;139769;-56
2021/11/29 10:02:31;;;;;;;21.30;12.50;;;;;;;3.26;70.95;97074.59;212190;1328;140059;-57
2021/11/29 10:07:38;;;;;;;23.10;14.40;;;;;;;3.22;70.89;97084.46;211967;1332;139530;-56
2021/11/29 10:12:41;;;;;;;22.70;14.40;;;;;;;3.20;70.85;97084.47;212315;1328;139964;-61
2021/11/29 10:17:46;;;;;;;25.90;14.10;;;;;;;3.11;71.09;97090.80;212243;1328;138614;-59
2021/11/29 10:23:08;;;;;;;24.50;14.20;;;;;;;3.03;71.09;97092.50;212784;1328;139879;-61
2021/11/29 10:28:55;;;;;;;21.10;13.80;;;;;;;3.03;71.17;97095.15;212260;1323;140025;-60
2021/11/29 10:34:10;;;;;;;28.40;16.60;;;;;;;3.08;71.33;97098.83;211577;1330;140539;-59
2021/11/29 10:39:19;;;;;;;26.20;15.40;;;;;;;3.10;71.27;97106.63;212471;1326;139242;-63
2021/11/29 10:44:26;;;;;;;23.40;14.20;;;;;;;3.09;71.28;97108.77;212259;1328;139751;-58
2021/11/29 10:49:32;;;;;;;25.70;16.50;;;;;;;3.07;71.42;97102.06;212280;1329;140040;-61
2021/11/29 10:54:39;;;;;;;23.00;13.40;;;;;;;3.11;71.45;97101.65;212312;1326;139619;-59
2021/11/29 10:59:44;;;;;;;21.30;14.00;;;;;;;3.15;71.44;97103.53;212171;1323;140579;-58
2021/11/29 11:05:01;;;;;;;20.10;12.80;;;;;;;3.17;71.47;97110.21;212300;1329;139555;-58
2021/11/29 11:10:13;;;;;;;19.80;12.20;;;;;;;3.14;71.41;97119.33;212196;1330;140099;-60
2021/11/29 11:15:19;;;;;;;19.80;13.40;;;;;;;3.16;71.45;97117.98;212672;1324;149459;-58
2021/11/29 11:20:38;;;;;;;14.90;10.20;;;;;;;3.12;71.35;97120.38;212077;1331;139137;-61
2021/11/29 11:25:42;;;;;;;15.10;10.90;;;;;;;3.08;71.19;97116.56;212028;1330;140805;-62
2021/11/29 11:30:46;;;;;;;16.90;12.30;;;;;;;3.05;71.45;97109.76;212080;1331;140189;-57
2021/11/29 11:35:52;;;;;;;15.30;10.70;;;;;;;3.08;71.40;97115.16;212534;1323;139809;-59
2021/11/29 11:40:55;;;;;;;18.70;11.30;;;;;;;3.05;71.31;97112.73;212174;1329;139218;-58
2021/11/29 11:45:59;;;;;;;16.80;11.60;;;;;;;3.02;71.44;97109.56;212272;1329;139173;-58
2021/11/29 11:51:02;;;;;;;13.50;9.70;;;;;;;3.10;71.46;97114.01;212482;1324;139912;-58
2021/11/29 11:56:05;;;;;;;14.50;10.60;;;;;;;3.11;71.25;97120.77;211915;1338;141250;-57
2021/11/29 12:01:16;;;;;;;17.20;10.50;;;;;;;3.12;71.27;97130.54;212922;1322;138953;-58
2021/11/29 12:06:20;;;;;;;13.30;10.20;;;;;;;3.12;71.29;97129.30;212168;1330;140820;-57
2021/11/29 12:11:26;;;;;;;18.20;10.90;;;;;;;3.13;71.33;97130.45;212260;1328;140598;-59
2021/11/29 12:16:42;;;;;;;16.10;11.30;;;;;;;3.12;71.19;97130.16;212066;1328;139345;-59
2021/11/29 12:21:45;;;;;;;;;;;;;;;3.17;71.31;97137.20;211834;1327;140415;-57
2021/11/29 12:26:48;;;;;;;13.40;9.10;;;;;;;3.19;71.17;97140.60;211817;1331;127789;-57
2021/11/29 12:31:57;;;;;;;15.40;10.00;;;;;;;3.15;71.17;97139.99;212126;1323;138497;-60
2021/11/29 12:37:00;;;;;;;13.30;9.30;;;;;;;3.17;71.14;97149.83;212026;1329;139607;-64
2021/11/29 12:42:03;;;;;;;17.00;10.60;;;;;;;3.14;70.97;97149.12;211919;1321;142002;-59
2021/11/29 12:47:26;;;;;;;16.20;10.30;;;;;;;3.13;71.05;97156.92;211851;1329;139554;-59
2021/11/29 12:52:29;;;;;;;18.10;12.50;;;;;;;3.16;70.97;97158.15;212029;1329;140108;-62
2021/11/29 12:57:40;;;;;;;18.70;13.50;;;;;;;3.15;70.98;97163.23;212554;1322;139693;-59
2021/11/29 13:02:43;;;;;;;20.50;14.20;;;;;;;3.13;70.83;97168.15;212718;1328;140200;-60
2021/11/29 13:08:31;;;;;;;20.00;13.80;;;;;;;3.09;70.84;97171.89;212180;1323;138588;-58
2021/11/29 13:13:56;;;;;;;20.60;13.00;;;;;;;3.05;70.75;97173.85;211956;1329;139843;-57
2021/11/29 13:19:07;;;;;;;19.60;13.00;;;;;;;3.08;70.92;97178.41;211943;1325;140071;-59
2021/11/29 13:24:12;;;;;;;21.60;12.70;;;;;;;3.11;70.87;97189.30;212280;1327;140040;-60
2021/11/29 13:29:23;;;;;;;17.60;11.50;;;;;;;3.11;70.81;97198.73;212758;1322;139161;-61
2021/11/29 13:34:25;;;;;;;19.70;12.90;;;;;;;3.08;70.73;97211.85;211701;1330;140538;-57
2021/11/29 13:39:40;;;;;;;16.70;11.40;;;;;;;3.05;70.64;97219.59;211903;1326;140588;-59
2021/11/29 13:44:47;;;;;;;17.90;11.80;;;;;;;3.05;70.68;97222.54;212334;1326;140344;-59
2021/11/29 13:50:21;;;;;;;18.40;12.50;;;;;;;3.08;70.76;97223.25;212507;1322;140346;-59
2021/11/29 13:55:27;;;;;;;19.80;13.50;;;;;;;3.12;70.73;97227.05;212774;1323;138671;-59
2021/11/29 14:00:30;;;;;;;;;;;;;;;3.15;70.72;97231.08;212428;1324;140179;-62
2021/11/29 14:05:43;;;;;;;17.60;12.90;;;;;;;3.10;70.33;97239.45;213536;1322;125418;-59
2021/11/29 14:10:54;;;;;;;21.20;13.40;;;;;;;3.03;70.44;97247.94;213080;1323;139543;-58
2021/11/29 14:16:09;;;;;;;21.80;14.60;;;;;;;2.98;70.34;97255.20;212036;1327;140862;-59
2021/11/29 14:21:14;;;;;;;21.00;13.30;;;;;;;2.98;70.35;97262.91;212444;1329;142361;-55
2021/11/29 14:26:31;;;;;;;23.90;16.60;;;;;;;3.03;70.81;97263.85;212091;1330;140564;-57
2021/11/29 14:31:35;;;;;;;21.40;14.40;;;;;;;3.11;70.71;97269.52;212525;1328;139487;-60
2021/11/29 14:36:43;;;;;;;22.40;13.60;;;;;;;3.05;70.45;97273.73;211723;1325;139912;-59
2021/11/29 14:41:59;;;;;;;21.60;13.90;;;;;;;2.96;70.34;97283.72;212445;1323;140484;-59
2021/11/29 14:47:14;;;;;;;21.60;13.60;;;;;;;2.90;70.24;97298.95;212719;1327;140199;-58
2021/11/29 14:52:20;;;;;;;21.40;15.10;;;;;;;2.91;70.57;97306.48;212274;1323;139264;-60
2021/11/29 14:57:24;;;;;;;;;;;;;;;2.98;70.34;97315.80;212374;1325;140000;-57
2021/11/29 15:02:27;;;;;;;18.90;12.20;;;;;;;2.92;70.15;97323.19;212097;1328;126734;-58
2021/11/29 15:07:31;;;;;;;19.30;13.20;;;;;;;2.82;69.92;97337.13;212048;1322;139598;-59
2021/11/29 15:12:37;;;;;;;22.70;14.40;;;;;;;2.66;69.72;97342.39;211701;1332;141333;-58
2021/11/29 15:17:45;;;;;;;19.30;12.60;;;;;;;2.61;69.88;97355.30;212373;1321;139707;-57
2021/11/29 15:22:52;;;;;;;19.30;11.90;;;;;;;2.55;69.98;97353.52;212406;1325;140823;-59
2021/11/29 15:28:20;;;;;;;16.50;10.50;;;;;;;2.55;69.83;97356.85;212438;1322;139570;-57
2021/11/29 15:33:26;;;;;;;22.70;10.50;;;;;;;2.50;69.65;97363.42;212240;1329;139156;-60
2021/11/29 15:38:38;;;;;;;;;;;;;;;2.41;69.56;97368.69;212159;1325;139210;-60
2021/11/29 15:43:46;;;;;;;15.20;8.10;;;;;;;2.30;69.35;97376.28;212309;1324;126584;-58
2021/11/29 15:48:53;;;;;;;15.30;9.50;;;;;;;2.24;69.29;97388.15;212543;1325;139070;-59
2021/11/29 15:53:59;;;;;;;17.20;9.10;;;;;;;2.22;69.50;97392.67;212237;1329;139558;-62
2021/11/29 15:59:06;;;;;;;20.10;10.40;;;;;;;2.19;69.43;97403.86;212534;1325;139144;-59
2021/11/29 16:04:10;;;;;;;16.70;9.20;;;;;;;2.17;69.55;97421.80;213148;1322;140042;-57
2021/11/29 16:09:15;;;;;;;36.90;19.00;;;;;;;2.14;69.26;97425.27;212544;1322;140079;-56
2021/11/29 16:14:18;;;;;;;14.10;7.60;;;;;;;2.23;69.46;97435.31;212419;1322;139395;-57
2021/11/29 16:19:21;;;;;;;13.00;7.20;;;;;;;2.25;69.04;97443.20;212044;1325;140319;-57
2021/11/29 16:24:25;;;;;;;14.60;8.40;;;;;;;2.25;68.84;97447.92;212446;1322;140252;-62
2021/11/29 16:29:34;;;;;;;12.50;7.20;;;;;;;2.24;68.77;97457.83;212528;1329;139777;-57
2021/11/29 16:34:42;;;;;;;11.70;6.00;;;;;;;2.21;68.49;97464.97;211868;1324;139539;-58
2021/11/29 16:39:57;;;;;;;13.30;5.80;;;;;;;2.21;68.54;97481.06;211704;1328;139245;-59
2021/11/29 16:45:03;;;;;;;12.70;7.00;;;;;;;2.23;68.41;97482.17;212478;1326;140159;-57
2021/11/29 16:50:08;;;;;;;17.80;7.90;;;;;;;2.19;68.35;97485.68;212347;1322;139022;-58
2021/11/29 16:55:13;;;;;;;13.80;7.80;;;;;;;2.21;68.38;97491.73;212902;1322;139725;-57
2021/11/29 17:00:19;;;;;;;9.30;5.70;;;;;;;2.23;68.43;97503.54;212830;1325;139520;-57
2021/11/29 17:05:23;;;;;;;8.00;5.40;;;;;;;2.25;68.40;97515.68;212154;1325;139330;-58
2021/11/29 17:10:27;;;;;;;13.80;6.40;;;;;;;2.30;68.38;97520.79;211748;1326;140491;-57
2021/11/29 17:15:31;;;;;;;10.50;5.80;;;;;;;2.36;68.29;97526.25;212151;1325;138845;-63
2021/11/29 17:20:35;;;;;;;13.80;8.30;;;;;;;2.39;68.31;97531.02;212215;1315;139136;-57
2021/11/29 17:25:39;;;;;;;12.70;7.20;;;;;;;2.46;68.42;97534.48;211855;1329;139660;-60
2021/11/29 17:30:42;;;;;;;13.90;8.20;;;;;;;2.44;68.21;97534.42;212635;1325;139591;-63
2021/11/29 17:35:45;;;;;;;15.10;8.40;;;;;;;2.45;68.09;97539.09;211787;1322;139933;-56
2021/11/29 17:40:49;;;;;;;15.50;9.40;;;;;;;2.52;68.21;97532.23;213225;1324;139355;-58
2021/11/29 17:45:53;;;;;;;19.40;10.40;;;;;;;2.55;68.05;97527.01;212911;1322;138927;-59
2021/11/29 17:50:57;;;;;;;16.90;9.80;;;;;;;2.52;68.00;97527.88;211875;1329;139078;-58
2021/11/29 17:56:00;;;;;;;20.20;10.40;;;;;;;2.48;67.73;97538.89;212122;1328;139389;-57
2021/11/29 18:01:04;;;;;;;17.80;10.50;;;;;;;2.49;67.81;97542.22;212316;1325;139449;-64
2021/11/29 18:06:10;;;;;;;21.20;10.30;;;;;;;2.54;67.94;97550.86;212483;1326;140405;-60
2021/11/29 18:16:38;;;;;;;17.70;10.60;;;;;;;2.68;67.73;97540.27;212126;1325;140851;-56
2021/11/29 18:21:41;;;;;;;21.70;12.10;;;;;;;2.76;67.60;97549.15;211950;1328;139972;-60
2021/11/29 18:26:46;;;;;;;188.00;109.00;;;;;;;2.85;67.98;97554.23;212323;1325;139367;-56
2021/11/29 18:31:49;;;;;;;20.80;11.90;;;;;;;3.09;68.12;97553.81;212252;1329;139525;-60
2021/11/29 18:36:53;;;;;;;19.60;11.80;;;;;;;3.01;67.32;97552.29;211832;1325;139398;-63
2021/11/29 18:41:56;;;;;;;19.70;11.50;;;;;;;2.94;67.33;97562.85;212279;1326;139245;-61
2021/11/29 18:46:59;;;;;;;22.10;12.80;;;;;;;2.91;67.35;97561.48;211825;1328;139169;-58
2021/11/29 18:52:03;;;;;;;202.30;126.40;;;;;;;2.93;67.69;97562.55;212515;1325;139318;-56
2021/11/29 18:57:06;;;;;;;24.80;13.40;;;;;;;3.21;68.10;97561.56;212543;1322;139828;-57
2021/11/29 19:02:10;;;;;;;21.90;12.10;;;;;;;3.18;67.52;97556.96;212454;1322;139893;-58
2021/11/29 19:07:13;;;;;;;23.10;12.80;;;;;;;3.12;67.37;97556.61;212427;1325;140855;-59
2021/11/29 19:12:16;;;;;;;21.40;12.40;;;;;;;3.08;67.33;97556.45;212041;1323;141190;-61
2021/11/29 19:17:19;;;;;;;23.10;13.20;;;;;;;3.02;67.32;97564.17;212111;1325;140158;-62
2021/11/29 19:22:22;;;;;;;23.80;13.20;;;;;;;2.94;67.20;97562.50;212728;1326;139917;-58
2021/11/29 19:27:26;;;;;;;25.00;13.50;;;;;;;2.88;67.41;97564.60;212289;1326;139076;-57
2021/11/29 19:32:31;;;;;;;27.80;15.30;;;;;;;2.85;67.61;97567.22;212628;1322;139213;-62
2021/11/29 19:37:36;;;;;;;25.20;13.20;;;;;;;2.90;67.74;97569.77;212113;1328;140022;-57
2021/11/29 19:42:43;;;;;;;22.40;13.20;;;;;;;2.94;67.75;97578.80;212091;1325;140336;-58
2021/11/29 19:47:48;;;;;;;21.60;12.70;;;;;;;2.97;67.47;97583.72;211940;1323;139784;-59
2021/11/29 19:52:51;;;;;;;27.30;15.40;;;;;;;3.04;68.06;97590.34;212079;1323;139688;-61
2021/11/29 19:57:54;;;;;;;24.60;14.80;;;;;;;3.11;67.85;97592.61;212165;1328;139722;-58
2021/11/29 20:02:57;;;;;;;23.80;15.40;;;;;;;3.10;67.70;97599.52;211946;1329;139767;-60
2021/11/29 20:08:01;;;;;;;26.70;15.40;;;;;;;3.02;67.45;97596.91;212303;1326;139280;-60
2021/11/29 20:13:04;;;;;;;22.70;14.50;;;;;;;2.92;67.53;97604.35;212188;1329;139083;-58
2021/11/29 20:18:09;;;;;;;21.30;13.90;;;;;;;2.84;67.56;97605.45;211724;1324;140407;-61
2021/11/29 20:23:14;;;;;;;23.30;13.90;;;;;;;2.84;67.70;97609.44;212294;1323;139139;-56
2021/11/29 20:28:17;;;;;;;23.00;13.70;;;;;;;2.83;67.76;97614.96;212380;1322;139066;-62
2021/11/29 20:33:20;;;;;;;26.30;15.00;;;;;;;2.81;67.63;97620.84;212457;1328;139786;-57
2021/11/29 20:38:23;;;;;;;23.90;14.00;;;;;;;2.80;67.69;97622.31;212645;1328;140689;-57
2021/11/29 20:43:26;;;;;;;24.90;13.50;;;;;;;2.80;67.73;97618.95;212503;1325;140165;-56
2021/11/29 20:48:34;;;;;;;25.70;13.60;;;;;;;2.86;67.85;97620.25;212368;1324;139582;-60
2021/11/29 20:53:37;;;;;;;24.00;14.80;;;;;;;2.90;67.82;97625.06;212397;1326;139238;-55
2021/11/29 20:58:41;;;;;;;23.10;14.00;;;;;;;2.91;67.75;97622.79;212275;1329;139285;-58
2021/11/29 21:03:44;;;;;;;24.60;14.60;;;;;;;2.91;67.75;97626.98;212409;1322;139219;-58
2021/11/29 21:09:04;;;;;;;25.20;15.10;;;;;;;2.89;67.74;97619.17;211874;1331;140351;-58
2021/11/29 21:14:09;;;;;;;29.00;15.40;;;;;;;2.87;67.65;97613.00;212246;1324;139539;-59
2021/11/29 21:19:12;;;;;;;24.50;13.80;;;;;;;2.84;67.72;97623.98;212387;1322;140236;-58
2021/11/29 21:24:15;;;;;;;25.10;14.00;;;;;;;2.84;67.75;97628.40;212783;1325;139088;-60
2021/11/29 21:29:18;;;;;;;29.40;15.90;;;;;;;2.81;67.68;97626.09;212668;1323;142096;-57
2021/11/29 21:34:21;;;;;;;27.50;16.20;;;;;;;2.79;67.77;97634.10;212227;1327;140973;-58
2021/11/29 21:39:25;;;;;;;32.30;19.00;;;;;;;2.80;67.85;97647.02;212419;1325;139129;-57
2021/11/29 21:44:28;;;;;;;27.00;14.90;;;;;;;2.88;67.82;97652.52;211973;1330;139836;-60
2021/11/29 21:49:31;;;;;;;24.50;13.70;;;;;;;2.94;67.71;97654.86;212514;1325;139692;-61
2021/11/29 21:54:34;;;;;;;24.40;14.00;;;;;;;2.96;67.60;97664.67;211951;1330;140540;-58
2021/11/29 21:59:37;;;;;;;25.10;14.40;;;;;;;2.98;67.50;97675.96;212258;1316;139607;-58
2021/11/29 22:04:40;;;;;;;23.20;14.50;;;;;;;2.98;67.59;97679.47;212544;1323;140689;-59
2021/11/29 22:09:44;;;;;;;21.60;13.50;;;;;;;3.04;67.57;97684.23;212176;1329;139076;-61
2021/11/29 22:14:47;;;;;;;26.60;14.90;;;;;;;3.02;67.39;97689.45;212067;1323;139724;-64
2021/11/29 22:19:50;;;;;;;22.90;13.40;;;;;;;2.95;67.31;97690.86;211845;1322;139693;-61
2021/11/29 22:24:54;;;;;;;24.20;13.10;;;;;;;2.97;67.43;97689.72;211983;1329;140037;-60
2021/11/29 22:29:59;;;;;;;24.90;14.20;;;;;;;3.00;67.51;97691.29;211669;1333;139805;-61
2021/11/29 22:35:03;;;;;;;;;;;;;;;3.04;67.44;97694.92;212489;1318;139191;-61
2021/11/29 22:40:08;;;;;;;24.60;13.90;;;;;;;3.02;67.31;97687.33;212336;1328;126463;-59
2021/11/29 22:45:11;;;;;;;26.40;15.10;;;;;;;3.01;67.44;97685.61;212372;1323;138930;-65
2021/11/29 22:50:14;;;;;;;29.20;16.00;;;;;;;2.97;67.52;97680.91;211925;1330;141634;-60
2021/11/29 22:55:18;;;;;;;25.70;15.40;;;;;;;2.92;67.42;97689.10;212128;1329;139782;-60
2021/11/29 23:00:55;;;;;;;27.00;16.30;;;;;;;2.89;67.55;97693.83;212069;1330;143288;-59
2021/11/29 23:06:06;;;;;;;27.40;16.80;;;;;;;2.93;67.74;97691.48;212103;1322;139662;-56
2021/11/29 23:11:12;;;;;;;29.30;16.60;;;;;;;2.93;67.74;97698.85;212828;1323;140150;-59
2021/11/29 23:16:15;;;;;;;;;;;;;;;2.93;67.81;97699.57;212527;1326;139197;-58
2021/11/29 23:21:21;;;;;;;25.40;15.00;;;;;;;2.88;67.63;97705.94;212382;1329;125453;-58